Orion — WDG4315 — position and weather

sailwx.info

Track history (hours):
 
Tides and Currents Weather Stations Pressure Air Temp Water Temp Dewpoint Dewpoint Depression Visibility Wind Speed Wind Dir Waves Ship Positions

Orion

Owner: Princess Diana 1 Inc., Gloucester, MA. More information available from US FCC via Universal Licensing System and Coast Guard Vessel Documentation Center.

Last reported at 2017-Sep-24 18:11 UTC. Time now 2017-Oct-18 23:58 UTC.
Position N 42°37' W 070°39'.
Warning: this ship's position is 24 days out of date.

Length 24 m.

Type: Ship. MMSI: 367535260.

Date/timePositionNaut miles runAvg speedWind from/ knotsBaromVisibWave heightAir tempDewpointWater temp
2017-Sep-24 18:11N 42°37' W 070°39'0 0.1
2017-Sep-24 16:08N 42°37' W 070°39'0 0.4
2017-Sep-24 15:49N 42°37' W 070°39'0 0.0
2017-Sep-24 15:02N 42°37' W 070°39'0 0.1
2017-Sep-24 14:59N 42°37' W 070°39'0 0.0
2017-Sep-24 14:06N 42°37' W 070°39'0 0.0
2017-Sep-24 13:58N 42°37' W 070°39'0 0.0
2017-Sep-24 13:27N 42°37' W 070°39'0 0.0
2017-Sep-24 12:57N 42°37' W 070°39'0 0.0
2017-Sep-24 12:19N 42°37' W 070°39'0 0.0
2017-Sep-24 11:25N 42°37' W 070°39'0 0.0
2017-Sep-24 09:42N 42°37' W 070°39'0 0.0
2017-Sep-24 09:25N 42°37' W 070°39'0 0.0
2017-Sep-24 08:38N 42°37' W 070°39'0 0.0
2017-Sep-24 08:30N 42°37' W 070°39'0 0.0
2017-Sep-24 07:52N 42°37' W 070°39'0 0.0
2017-Sep-24 06:53N 42°37' W 070°39'0 0.0
2017-Sep-24 05:50N 42°37' W 070°39'0 0.0
2017-Sep-24 05:03N 42°37' W 070°39'0 0.0
2017-Sep-24 04:14N 42°37' W 070°39'0 0.0
2017-Sep-24 04:00N 42°37' W 070°39'0 0.0
2017-Sep-24 03:24N 42°37' W 070°39'0 0.0
2017-Sep-24 02:20N 42°37' W 070°39'0 0.0
2017-Sep-24 00:48N 42°37' W 070°39'0 0.0
2017-Sep-24 00:28N 42°37' W 070°39'0 0.0
2017-Sep-23 23:51N 42°37' W 070°39'0 0.0
2017-Sep-23 23:30N 42°37' W 070°39'0 0.0
2017-Sep-22 01:52N 42°37' W 070°39'0 0.0
2017-Sep-22 01:30N 42°37' W 070°39'0 0.0
2017-Sep-22 00:44N 42°37' W 070°39'0 0.0
2017-Sep-22 00:30N 42°37' W 070°39'0 0.0
2017-Sep-21 23:45N 42°37' W 070°39'0 0.0
2017-Sep-21 23:30N 42°37' W 070°39'0 0.0
2017-Sep-21 23:00N 42°37' W 070°39'0 0.0
2017-Sep-21 22:30N 42°37' W 070°39'0 0.0
2017-Sep-21 21:53N 42°37' W 070°39'0 0.0
2017-Sep-21 21:00N 42°37' W 070°39'0 0.0
2017-Sep-21 20:02N 42°37' W 070°39'0 0.0
2017-Sep-21 18:08N 42°37' W 070°39'0 0.0
2017-Sep-21 17:58N 42°37' W 070°39'0 0.0
2017-Sep-21 17:16N 42°37' W 070°39'0 0.0
2017-Sep-21 16:51N 42°37' W 070°39'0 0.0
2017-Sep-21 16:22N 42°37' W 070°39'0 0.0
2017-Sep-21 15:47N 42°37' W 070°39'0 0.0
2017-Sep-21 15:30N 42°37' W 070°39'0 0.0
2017-Sep-21 14:20N 42°37' W 070°39'0 0.0
2017-Sep-21 13:01N 42°37' W 070°39'0 0.0
2017-Sep-21 12:45N 42°37' W 070°39'0 0.0
2017-Sep-21 11:56N 42°37' W 070°39'0 0.0
2017-Sep-21 11:12N 42°37' W 070°39'0 0.0
2017-Sep-21 11:00N 42°37' W 070°39'0 0.0
2017-Sep-21 10:26N 42°37' W 070°39'0 0.0
2017-Sep-21 09:59N 42°37' W 070°39'0 0.0
2017-Sep-21 09:20N 42°37' W 070°39'0 0.0
2017-Sep-21 08:59N 42°37' W 070°39'0 0.0
2017-Sep-21 08:24N 42°37' W 070°39'0 0.0
2017-Sep-21 07:57N 42°37' W 070°39'0 0.0
2017-Sep-21 07:26N 42°37' W 070°39'0 0.0
2017-Sep-21 06:42N 42°37' W 070°39'0 0.0
2017-Sep-21 06:30N 42°37' W 070°39'0 0.0
2017-Sep-21 05:50N 42°37' W 070°39'0 0.0
2017-Sep-21 05:30N 42°37' W 070°39'0 0.0
2017-Sep-21 04:55N 42°37' W 070°39'0 0.0
2017-Sep-21 04:30N 42°37' W 070°39'0 0.0
2017-Sep-21 03:58N 42°37' W 070°39'0 0.0
2017-Sep-21 03:20N 42°37' W 070°39'0 0.0
2017-Sep-21 03:00N 42°37' W 070°39'0 0.0
2017-Sep-21 02:30N 42°37' W 070°39'0 0.0
2017-Sep-21 02:00N 42°37' W 070°39'0 0.0
2017-Sep-21 01:20N 42°37' W 070°39'0 0.0
2017-Sep-21 00:23N 42°37' W 070°39'3 0.3
2017-Sep-20 16:13N 42°34' W 070°39'1 4.9
2017-Sep-20 16:00N 42°34' W 070°38'4 6.3
2017-Sep-20 15:20N 42°35' W 070°32'2 4.8
2017-Sep-20 14:56N 42°35' W 070°30'  
2017-Sep-15 15:45N 42°35' W 070°30'2 7.5
2017-Sep-15 15:29N 42°35' W 070°32'4 7.3
2017-Sep-15 14:56N 42°34' W 070°38'2 5.0
2017-Sep-15 14:28N 42°36' W 070°40'1 2.7
2017-Sep-15 13:57N 42°37' W 070°39'0 0.0
2017-Sep-15 13:17N 42°37' W 070°39'0 0.0
2017-Sep-15 12:59N 42°37' W 070°39'0 0.0
2017-Sep-15 11:34N 42°37' W 070°39'0 0.0
2017-Sep-15 11:19N 42°37' W 070°39'0 0.0
2017-Sep-15 10:58N 42°37' W 070°39'0 0.0
2017-Sep-15 10:27N 42°37' W 070°39'0 0.0
2017-Sep-15 10:00N 42°37' W 070°39'0 0.0
2017-Sep-15 09:30N 42°37' W 070°39'0 0.0
2017-Sep-15 08:58N 42°37' W 070°39'0 0.0
2017-Sep-15 08:30N 42°37' W 070°39'0 0.0
2017-Sep-15 07:53N 42°37' W 070°39'0 0.0
2017-Sep-15 07:31N 42°37' W 070°39'0 0.0
2017-Sep-15 06:54N 42°37' W 070°39'0 0.0
2017-Sep-15 06:30N 42°37' W 070°39'0 0.0
2017-Sep-15 05:58N 42°37' W 070°39'0 0.0
2017-Sep-15 05:10N 42°37' W 070°39'0 0.0
2017-Sep-15 05:00N 42°37' W 070°39'0 0.0
2017-Sep-15 04:21N 42°37' W 070°39'0 0.0
2017-Sep-15 03:58N 42°37' W 070°39'0 0.0
2017-Sep-15 03:21N 42°37' W 070°39'0 0.0
2017-Sep-15 02:59N 42°37' W 070°39'0 0.0
2017-Sep-15 02:29N 42°37' W 070°39'0 0.0
2017-Sep-15 02:00N 42°37' W 070°39'0 0.0
2017-Sep-15 01:30N 42°37' W 070°39'0 0.0
2017-Sep-15 00:40N 42°37' W 070°39'0 0.0
2017-Sep-15 00:29N 42°37' W 070°39'0 0.0
2017-Sep-14 23:54N 42°37' W 070°39'0 0.0
2017-Sep-14 23:29N 42°37' W 070°39'0 0.0
2017-Sep-14 21:21N 42°37' W 070°39'0 0.0
2017-Sep-14 21:00N 42°37' W 070°39'0 0.0
2017-Sep-14 20:19N 42°37' W 070°39'0 0.0
2017-Sep-14 19:58N 42°37' W 070°39'0 0.0
2017-Sep-14 19:27N 42°37' W 070°39'0 0.3
2017-Sep-14 18:32N 42°37' W 070°39'  
Track history (hours):
 
Tides and Currents Weather Stations Pressure Air Temp Water Temp Dewpoint Dewpoint Depression Visibility Wind Speed Wind Dir Waves Ship Positions

Orion

Owner: Princess Diana 1 Inc., Gloucester, MA. More information available from US FCC via Universal Licensing System and Coast Guard Vessel Documentation Center.

Last reported at 2017-Sep-24 18:11 UTC. Time now 2017-Oct-18 23:58 UTC.
Position N 42°37' W 070°39'.
Warning: this ship's position is 24 days out of date.

Length 24 m.

Type: Ship. MMSI: 367535260.

Date/timePositionNaut miles runAvg speedWind from/ knotsBaromVisibWave heightAir tempDewpointWater temp
2017-Sep-24 18:11N 42°37' W 070°39'0 0.1
2017-Sep-24 16:08N 42°37' W 070°39'0 0.4
2017-Sep-24 15:49N 42°37' W 070°39'0 0.0
2017-Sep-24 15:02N 42°37' W 070°39'0 0.1
2017-Sep-24 14:59N 42°37' W 070°39'0 0.0
2017-Sep-24 14:06N 42°37' W 070°39'0 0.0
2017-Sep-24 13:58N 42°37' W 070°39'0 0.0
2017-Sep-24 13:27N 42°37' W 070°39'0 0.0
2017-Sep-24 12:57N 42°37' W 070°39'0 0.0
2017-Sep-24 12:19N 42°37' W 070°39'0 0.0
2017-Sep-24 11:25N 42°37' W 070°39'0 0.0
2017-Sep-24 09:42N 42°37' W 070°39'0 0.0
2017-Sep-24 09:25N 42°37' W 070°39'0 0.0
2017-Sep-24 08:38N 42°37' W 070°39'0 0.0
2017-Sep-24 08:30N 42°37' W 070°39'0 0.0
2017-Sep-24 07:52N 42°37' W 070°39'0 0.0
2017-Sep-24 06:53N 42°37' W 070°39'0 0.0
2017-Sep-24 05:50N 42°37' W 070°39'0 0.0
2017-Sep-24 05:03N 42°37' W 070°39'0 0.0
2017-Sep-24 04:14N 42°37' W 070°39'0 0.0
2017-Sep-24 04:00N 42°37' W 070°39'0 0.0
2017-Sep-24 03:24N 42°37' W 070°39'0 0.0
2017-Sep-24 02:20N 42°37' W 070°39'0 0.0
2017-Sep-24 00:48N 42°37' W 070°39'0 0.0
2017-Sep-24 00:28N 42°37' W 070°39'0 0.0
2017-Sep-23 23:51N 42°37' W 070°39'0 0.0
2017-Sep-23 23:30N 42°37' W 070°39'0 0.0
2017-Sep-22 01:52N 42°37' W 070°39'0 0.0
2017-Sep-22 01:30N 42°37' W 070°39'0 0.0
2017-Sep-22 00:44N 42°37' W 070°39'0 0.0
2017-Sep-22 00:30N 42°37' W 070°39'0 0.0
2017-Sep-21 23:45N 42°37' W 070°39'0 0.0
2017-Sep-21 23:30N 42°37' W 070°39'0 0.0
2017-Sep-21 23:00N 42°37' W 070°39'0 0.0
2017-Sep-21 22:30N 42°37' W 070°39'0 0.0
2017-Sep-21 21:53N 42°37' W 070°39'0 0.0
2017-Sep-21 21:00N 42°37' W 070°39'0 0.0
2017-Sep-21 20:02N 42°37' W 070°39'0 0.0
2017-Sep-21 18:08N 42°37' W 070°39'0 0.0
2017-Sep-21 17:58N 42°37' W 070°39'0 0.0
2017-Sep-21 17:16N 42°37' W 070°39'0 0.0
2017-Sep-21 16:51N 42°37' W 070°39'0 0.0
2017-Sep-21 16:22N 42°37' W 070°39'0 0.0
2017-Sep-21 15:47N 42°37' W 070°39'0 0.0
2017-Sep-21 15:30N 42°37' W 070°39'0 0.0
2017-Sep-21 14:20N 42°37' W 070°39'0 0.0
2017-Sep-21 13:01N 42°37' W 070°39'0 0.0
2017-Sep-21 12:45N 42°37' W 070°39'0 0.0
2017-Sep-21 11:56N 42°37' W 070°39'0 0.0
2017-Sep-21 11:12N 42°37' W 070°39'0 0.0
2017-Sep-21 11:00N 42°37' W 070°39'0 0.0
2017-Sep-21 10:26N 42°37' W 070°39'0 0.0
2017-Sep-21 09:59N 42°37' W 070°39'0 0.0
2017-Sep-21 09:20N 42°37' W 070°39'0 0.0
2017-Sep-21 08:59N 42°37' W 070°39'0 0.0
2017-Sep-21 08:24N 42°37' W 070°39'0 0.0
2017-Sep-21 07:57N 42°37' W 070°39'0 0.0
2017-Sep-21 07:26N 42°37' W 070°39'0 0.0
2017-Sep-21 06:42N 42°37' W 070°39'0 0.0
2017-Sep-21 06:30N 42°37' W 070°39'0 0.0
2017-Sep-21 05:50N 42°37' W 070°39'0 0.0
2017-Sep-21 05:30N 42°37' W 070°39'0 0.0
2017-Sep-21 04:55N 42°37' W 070°39'0 0.0
2017-Sep-21 04:30N 42°37' W 070°39'0 0.0
2017-Sep-21 03:58N 42°37' W 070°39'0 0.0
2017-Sep-21 03:20N 42°37' W 070°39'0 0.0
2017-Sep-21 03:00N 42°37' W 070°39'0 0.0
2017-Sep-21 02:30N 42°37' W 070°39'0 0.0
2017-Sep-21 02:00N 42°37' W 070°39'0 0.0
2017-Sep-21 01:20N 42°37' W 070°39'0 0.0
2017-Sep-21 00:23N 42°37' W 070°39'3 0.3
2017-Sep-20 16:13N 42°34' W 070°39'1 4.9
2017-Sep-20 16:00N 42°34' W 070°38'4 6.3
2017-Sep-20 15:20N 42°35' W 070°32'2 4.8
2017-Sep-20 14:56N 42°35' W 070°30'  
2017-Sep-15 15:45N 42°35' W 070°30'2 7.5
2017-Sep-15 15:29N 42°35' W 070°32'4 7.3
2017-Sep-15 14:56N 42°34' W 070°38'2 5.0
2017-Sep-15 14:28N 42°36' W 070°40'1 2.7
2017-Sep-15 13:57N 42°37' W 070°39'0 0.0
2017-Sep-15 13:17N 42°37' W 070°39'0 0.0
2017-Sep-15 12:59N 42°37' W 070°39'0 0.0
2017-Sep-15 11:34N 42°37' W 070°39'0 0.0
2017-Sep-15 11:19N 42°37' W 070°39'0 0.0
2017-Sep-15 10:58N 42°37' W 070°39'0 0.0
2017-Sep-15 10:27N 42°37' W 070°39'0 0.0
2017-Sep-15 10:00N 42°37' W 070°39'0 0.0
2017-Sep-15 09:30N 42°37' W 070°39'0 0.0
2017-Sep-15 08:58N 42°37' W 070°39'0 0.0
2017-Sep-15 08:30N 42°37' W 070°39'0 0.0
2017-Sep-15 07:53N 42°37' W 070°39'0 0.0
2017-Sep-15 07:31N 42°37' W 070°39'0 0.0
2017-Sep-15 06:54N 42°37' W 070°39'0 0.0
2017-Sep-15 06:30N 42°37' W 070°39'0 0.0
2017-Sep-15 05:58N 42°37' W 070°39'0 0.0
2017-Sep-15 05:10N 42°37' W 070°39'0 0.0
2017-Sep-15 05:00N 42°37' W 070°39'0 0.0
2017-Sep-15 04:21N 42°37' W 070°39'0 0.0
2017-Sep-15 03:58N 42°37' W 070°39'0 0.0
2017-Sep-15 03:21N 42°37' W 070°39'0 0.0
2017-Sep-15 02:59N 42°37' W 070°39'0 0.0
2017-Sep-15 02:29N 42°37' W 070°39'0 0.0
2017-Sep-15 02:00N 42°37' W 070°39'0 0.0
2017-Sep-15 01:30N 42°37' W 070°39'0 0.0
2017-Sep-15 00:40N 42°37' W 070°39'0 0.0
2017-Sep-15 00:29N 42°37' W 070°39'0 0.0
2017-Sep-14 23:54N 42°37' W 070°39'0 0.0
2017-Sep-14 23:29N 42°37' W 070°39'0 0.0
2017-Sep-14 21:21N 42°37' W 070°39'0 0.0
2017-Sep-14 21:00N 42°37' W 070°39'0 0.0
2017-Sep-14 20:19N 42°37' W 070°39'0 0.0
2017-Sep-14 19:58N 42°37' W 070°39'0 0.0
2017-Sep-14 19:27N 42°37' W 070°39'0 0.3
2017-Sep-14 18:32N 42°37' W 070°39'  

Dump ship's entire track history